createdAt,value
2022-12-22T00:00:39.379Z,10.42
2022-12-22T00:01:44.939Z,10.26
2022-12-22T00:02:41.316Z,10.26
2022-12-22T00:03:40.518Z,10.42
2022-12-22T00:04:40.646Z,10.26
2022-12-22T00:05:40.825Z,10.31
2022-12-22T00:06:41.524Z,10.26
2022-12-22T00:07:41.701Z,10.21
2022-12-22T00:08:41.926Z,10.26
2022-12-22T00:09:42.095Z,10.31
2022-12-22T00:10:40.855Z,10.15
2022-12-22T00:11:42.187Z,10.15
2022-12-22T00:12:43.371Z,10.37
2022-12-22T00:13:41.770Z,10.15
2022-12-22T00:14:42.090Z,10.26
2022-12-22T00:15:44.399Z,10.26
2022-12-22T00:16:42.743Z,10.26
2022-12-22T00:17:44.859Z,10.26
2022-12-22T00:18:43.262Z,10.26
2022-12-22T00:19:43.576Z,10.26
2022-12-22T00:20:45.762Z,10.26
2022-12-22T00:21:44.237Z,10.26
2022-12-22T00:22:44.581Z,10.26
2022-12-22T00:23:44.885Z,10.21
2022-12-22T00:24:47.059Z,10.31
2022-12-22T00:25:47.259Z,10.31
2022-12-22T00:26:45.822Z,10.26
2022-12-22T00:27:48.139Z,10.26
2022-12-22T00:28:46.300Z,10.37
2022-12-22T00:29:49.946Z,10.21
2022-12-22T00:30:46.917Z,10.26
2022-12-22T00:31:48.128Z,10.26
2022-12-22T00:32:49.325Z,10.21
2022-12-22T00:33:49.498Z,10.21
2022-12-22T00:34:47.927Z,10.26
2022-12-22T00:35:48.240Z,10.31
2022-12-22T00:36:48.552Z,10.31
2022-12-22T00:37:50.761Z,10.21
2022-12-22T00:38:51.887Z,10.26
2022-12-22T00:39:49.462Z,10.26
2022-12-22T00:40:49.650Z,10.21
2022-12-22T00:41:51.836Z,10.21
2022-12-22T00:42:50.222Z,10.26
2022-12-22T00:43:51.488Z,10.26
2022-12-22T00:44:52.740Z,10.26
2022-12-22T00:45:51.165Z,10.21
2022-12-22T00:46:51.449Z,10.21
2022-12-22T00:47:53.627Z,10.26
2022-12-22T00:48:52.028Z,10.26
2022-12-22T00:49:52.336Z,10.21
2022-12-22T00:50:52.651Z,10.26
2022-12-22T00:51:53.944Z,10.26
2022-12-22T00:52:55.158Z,10.26
2022-12-22T00:53:54.497Z,10.26
2022-12-22T00:54:55.739Z,10.26
2022-12-22T00:55:54.135Z,10.26
2022-12-22T00:56:54.455Z,10.37
2022-12-22T00:57:54.789Z,10.21
2022-12-22T00:58:56.961Z,10.26
2022-12-22T00:59:58.615Z,10.21
2022-12-22T01:00:57.557Z,10.21
2022-12-22T01:01:56.342Z,10.31
2022-12-22T01:02:56.365Z,10.31
2022-12-22T01:03:56.521Z,10.26
2022-12-22T01:04:56.821Z,10.21
2022-12-22T01:05:59.008Z,10.26
2022-12-22T01:06:57.408Z,10.26
2022-12-22T01:07:57.751Z,10.26
2022-12-22T01:08:58.040Z,10.26
2022-12-22T01:09:58.363Z,10.21
2022-12-22T01:11:00.548Z,10.26
2022-12-22T01:11:59.959Z,10.26
2022-12-22T01:12:59.209Z,10.21
2022-12-22T01:14:00.516Z,10.26
2022-12-22T01:14:59.759Z,10.26
2022-12-22T01:16:00.967Z,10.26
2022-12-22T01:17:02.200Z,10.26
2022-12-22T01:18:02.356Z,10.26
2022-12-22T01:19:02.710Z,10.26
2022-12-22T01:20:03.257Z,10.37
2022-12-22T01:21:03.401Z,10.26
2022-12-22T01:22:03.581Z,10.26
2022-12-22T01:23:04.037Z,10.26
2022-12-22T01:24:03.992Z,10.31
2022-12-22T01:25:04.659Z,10.21
2022-12-22T01:26:03.052Z,10.26
2022-12-22T01:27:05.250Z,10.31
2022-12-22T01:28:03.650Z,10.04
2022-12-22T01:29:05.832Z,10.26
2022-12-22T01:30:06.037Z,10.26
2022-12-22T01:31:06.222Z,10.26
2022-12-22T01:32:06.359Z,10.21
2022-12-22T01:33:07.017Z,10.26
2022-12-22T01:34:07.222Z,10.26
2022-12-22T01:35:07.409Z,10.26
2022-12-22T01:36:06.052Z,10.26
2022-12-22T01:37:06.396Z,10.26
2022-12-22T01:38:09.505Z,10.31
2022-12-22T01:39:08.754Z,10.21
2022-12-22T01:40:10.402Z,10.21
2022-12-22T01:41:09.141Z,10.26
2022-12-22T01:42:10.828Z,10.21
2022-12-22T01:43:10.045Z,10.26
2022-12-22T01:44:10.237Z,10.37
2022-12-22T01:45:10.423Z,10.31
2022-12-22T01:46:10.629Z,10.26
2022-12-22T01:47:09.256Z,10.26
2022-12-22T01:48:11.447Z,10.26
2022-12-22T01:49:09.834Z,10.26
2022-12-22T01:50:10.411Z,10.26
2022-12-22T01:51:12.346Z,10.26
2022-12-22T01:52:11.745Z,10.31
2022-12-22T01:53:14.856Z,10.31
2022-12-22T01:54:12.331Z,10.10
2022-12-22T01:55:11.583Z,10.21
2022-12-22T01:56:13.782Z,10.26
2022-12-22T01:57:12.176Z,10.26
2022-12-22T01:58:14.360Z,10.21
2022-12-22T01:59:12.793Z,10.31
2022-12-22T02:00:13.063Z,10.04
2022-12-22T02:01:15.272Z,10.26
2022-12-22T02:02:15.511Z,10.26
2022-12-22T02:03:13.915Z,10.31
2022-12-22T02:04:16.073Z,10.26
2022-12-22T02:05:16.264Z,10.31
2022-12-22T02:06:16.459Z,10.26
2022-12-22T02:07:16.647Z,10.21
2022-12-22T02:08:17.338Z,10.26
2022-12-22T02:09:17.543Z,10.26
2022-12-22T02:10:17.709Z,10.10
2022-12-22T02:11:17.874Z,10.04
2022-12-22T02:12:18.556Z,10.31
2022-12-22T02:13:18.826Z,10.26
2022-12-22T02:14:17.215Z,10.21
2022-12-22T02:15:19.423Z,10.26
2022-12-22T02:16:19.808Z,10.04
2022-12-22T02:17:18.104Z,10.26
2022-12-22T02:18:21.742Z,10.04
2022-12-22T02:19:18.689Z,9.99
2022-12-22T02:20:20.862Z,9.99
2022-12-22T02:21:21.042Z,10.26
2022-12-22T02:22:19.736Z,10.26
2022-12-22T02:23:21.789Z,10.04
2022-12-22T02:24:20.160Z,10.21
2022-12-22T02:25:20.478Z,10.26
2022-12-22T02:26:20.805Z,10.31
2022-12-22T02:27:21.110Z,9.83
2022-12-22T02:28:23.294Z,10.21
2022-12-22T02:29:21.815Z,10.26
2022-12-22T02:30:21.963Z,10.21
2022-12-22T02:31:23.122Z,10.26
2022-12-22T02:32:22.617Z,10.10
2022-12-22T02:33:24.956Z,10.04
2022-12-22T02:34:23.253Z,10.10
2022-12-22T02:35:23.557Z,10.04
2022-12-22T02:36:25.755Z,10.10
2022-12-22T02:37:24.138Z,10.26
2022-12-22T02:38:25.216Z,10.31
2022-12-22T02:39:25.641Z,10.21
2022-12-22T02:40:25.790Z,10.04
2022-12-22T02:41:25.290Z,10.04
2022-12-22T02:42:27.483Z,10.04
2022-12-22T02:43:25.883Z,10.21
2022-12-22T02:44:28.060Z,10.26
2022-12-22T02:45:26.449Z,10.10
2022-12-22T02:46:26.798Z,10.26
2022-12-22T02:47:28.971Z,10.21
2022-12-22T02:48:29.300Z,10.21
2022-12-22T02:49:29.355Z,10.26
2022-12-22T02:50:27.998Z,10.04
2022-12-22T02:51:28.314Z,10.10
2022-12-22T02:52:28.685Z,10.04
2022-12-22T02:53:28.867Z,10.15
2022-12-22T02:54:31.112Z,10.04
2022-12-22T02:55:29.504Z,10.26
2022-12-22T02:56:29.835Z,10.10
2022-12-22T02:57:30.153Z,10.10
2022-12-22T02:58:31.486Z,10.04
2022-12-22T02:59:32.649Z,10.10
2022-12-22T03:00:31.141Z,10.26
2022-12-22T03:01:33.392Z,10.10
2022-12-22T03:02:31.872Z,10.10
2022-12-22T03:03:32.029Z,10.04
2022-12-22T03:04:34.127Z,10.10
2022-12-22T03:05:32.531Z,10.10
2022-12-22T03:06:32.833Z,10.04
2022-12-22T03:07:35.023Z,10.21
2022-12-22T03:08:35.181Z,10.04
2022-12-22T03:09:35.375Z,10.04
2022-12-22T03:10:35.542Z,10.04
2022-12-22T03:11:36.223Z,10.04
2022-12-22T03:12:36.422Z,10.04
2022-12-22T03:13:36.611Z,10.04
2022-12-22T03:14:36.804Z,10.04
2022-12-22T03:15:37.484Z,10.04
2022-12-22T03:16:37.796Z,10.10
2022-12-22T03:17:37.874Z,10.26
2022-12-22T03:18:38.104Z,10.04
2022-12-22T03:19:38.273Z,10.04
2022-12-22T03:20:38.953Z,10.26
2022-12-22T03:21:39.129Z,10.26
2022-12-22T03:22:37.646Z,10.04
2022-12-22T03:23:37.958Z,10.04
2022-12-22T03:24:41.599Z,10.04
2022-12-22T03:25:40.343Z,10.10
2022-12-22T03:26:38.856Z,10.04
2022-12-22T03:27:41.045Z,10.04
2022-12-22T03:28:39.449Z,10.15
2022-12-22T03:29:39.772Z,10.04
2022-12-22T03:30:40.075Z,9.99
2022-12-22T03:31:42.316Z,10.04
2022-12-22T03:32:42.489Z,10.10
2022-12-22T03:33:40.869Z,10.04
2022-12-22T03:34:43.061Z,10.37
2022-12-22T03:35:42.271Z,10.04
2022-12-22T03:36:43.661Z,10.10
2022-12-22T03:37:43.886Z,9.99
2022-12-22T03:38:44.081Z,10.10
2022-12-22T03:39:44.266Z,9.99
2022-12-22T03:40:44.942Z,10.04
2022-12-22T03:41:43.632Z,10.04
2022-12-22T03:42:45.532Z,10.04
2022-12-22T03:43:45.729Z,10.04
2022-12-22T03:44:45.909Z,10.10
2022-12-22T03:45:46.154Z,10.04
2022-12-22T03:46:46.021Z,10.04
2022-12-22T03:47:46.620Z,9.99
2022-12-22T03:48:47.326Z,10.10
2022-12-22T03:49:47.468Z,10.04
2022-12-22T03:50:47.876Z,10.10
2022-12-22T03:51:47.871Z,10.04
2022-12-22T03:52:48.517Z,10.21
2022-12-22T03:53:46.906Z,10.04
2022-12-22T03:54:47.244Z,10.04
2022-12-22T03:55:47.552Z,9.99
2022-12-22T03:56:47.854Z,9.99
2022-12-22T03:57:49.079Z,10.04
2022-12-22T03:58:48.423Z,10.10
2022-12-22T03:59:48.748Z,10.04
2022-12-22T04:00:50.972Z,10.04
2022-12-22T04:01:49.628Z,10.10
2022-12-22T04:02:49.732Z,10.10
2022-12-22T04:03:49.914Z,10.10
2022-12-22T04:04:50.256Z,10.15
2022-12-22T04:05:52.433Z,10.15
2022-12-22T04:06:50.836Z,10.04
2022-12-22T04:07:51.144Z,10.04
2022-12-22T04:08:53.387Z,10.04
2022-12-22T04:09:51.777Z,10.04
2022-12-22T04:10:53.964Z,10.04
2022-12-22T04:11:53.365Z,10.04
2022-12-22T04:12:52.614Z,10.10
2022-12-22T04:13:52.935Z,10.10
2022-12-22T04:14:56.070Z,10.10
2022-12-22T04:15:56.276Z,10.04
2022-12-22T04:16:53.811Z,10.04
2022-12-22T04:17:55.141Z,10.04
2022-12-22T04:18:54.395Z,10.04
2022-12-22T04:19:56.553Z,10.04
2022-12-22T04:20:56.775Z,10.10
2022-12-22T04:21:56.311Z,10.04
2022-12-22T04:22:55.546Z,9.99
2022-12-22T04:23:55.850Z,10.04
2022-12-22T04:24:56.222Z,10.10
2022-12-22T04:25:56.515Z,10.10
2022-12-22T04:26:56.870Z,10.04
2022-12-22T04:27:57.185Z,10.10
2022-12-22T04:28:57.556Z,10.04
2022-12-22T04:29:59.704Z,10.04
2022-12-22T04:30:59.900Z,10.04
2022-12-22T04:31:59.332Z,10.10
2022-12-22T04:32:59.519Z,10.04
2022-12-22T04:33:58.898Z,10.04
2022-12-22T04:34:59.297Z,9.99
2022-12-22T04:36:01.397Z,10.10
2022-12-22T04:37:09.882Z,10.04
2022-12-22T04:38:01.138Z,10.15
2022-12-22T04:39:01.311Z,10.15
2022-12-22T04:40:00.614Z,10.10
2022-12-22T04:41:03.315Z,10.10
2022-12-22T04:42:01.210Z,10.10
2022-12-22T04:43:01.522Z,10.04
2022-12-22T04:44:01.848Z,10.10
2022-12-22T04:45:02.158Z,10.10
2022-12-22T04:46:04.566Z,9.83
2022-12-22T04:48:18.325Z,10.04
2022-12-22T04:49:20.492Z,10.26
2022-12-22T04:50:20.766Z,10.10
2022-12-22T04:51:20.881Z,10.04
2022-12-22T04:52:21.275Z,10.10
2022-12-22T04:53:21.297Z,9.99
2022-12-22T04:54:19.896Z,10.04
2022-12-22T04:55:20.202Z,10.04
2022-12-22T04:56:22.386Z,10.15
2022-12-22T04:57:22.575Z,10.10
2022-12-22T04:58:21.085Z,10.04
2022-12-22T04:59:21.397Z,10.04
2022-12-22T05:00:21.965Z,10.10
2022-12-22T05:01:22.076Z,9.99
2022-12-22T05:02:24.269Z,10.10
2022-12-22T05:03:22.602Z,10.04
2022-12-22T05:04:24.705Z,10.04
2022-12-22T05:05:24.874Z,9.99
2022-12-22T05:06:23.372Z,10.04
2022-12-22T05:07:25.573Z,10.10
2022-12-22T05:08:25.766Z,10.10
2022-12-22T05:09:25.051Z,10.10
2022-12-22T05:10:24.563Z,10.04
2022-12-22T05:11:26.772Z,9.99
2022-12-22T05:12:25.135Z,10.10
2022-12-22T05:13:27.342Z,9.99
2022-12-22T05:14:27.569Z,10.10
2022-12-22T05:15:27.697Z,10.04
2022-12-22T05:16:27.935Z,10.04
2022-12-22T05:17:26.656Z,9.99
2022-12-22T05:18:26.947Z,10.04
2022-12-22T05:19:30.898Z,10.10
2022-12-22T05:20:29.443Z,10.04
2022-12-22T05:21:27.834Z,10.04
2022-12-22T05:22:28.142Z,10.10
2022-12-22T05:23:28.460Z,10.10
2022-12-22T05:24:30.646Z,10.10
2022-12-22T05:25:35.148Z,10.10
2022-12-22T05:26:29.365Z,10.04
2022-12-22T05:27:29.697Z,10.10
2022-12-22T05:28:30.009Z,10.04
2022-12-22T05:29:32.180Z,10.15
2022-12-22T05:30:33.841Z,10.10
2022-12-22T05:31:32.557Z,10.04
2022-12-22T05:32:32.715Z,10.04
2022-12-22T05:33:33.412Z,10.04
2022-12-22T05:34:31.808Z,10.10
2022-12-22T05:35:33.969Z,9.99
2022-12-22T05:36:35.662Z,9.88
2022-12-22T05:37:32.646Z,10.04
2022-12-22T05:38:34.839Z,10.10
2022-12-22T05:39:35.032Z,9.88
2022-12-22T05:40:35.464Z,9.83
2022-12-22T05:41:37.121Z,10.10
2022-12-22T05:42:35.924Z,10.04
2022-12-22T05:43:36.025Z,10.15
2022-12-22T05:44:36.695Z,10.04
2022-12-22T05:45:35.083Z,10.04
2022-12-22T05:46:37.314Z,10.04
2022-12-22T05:47:38.920Z,10.15
2022-12-22T05:48:39.184Z,10.10
2022-12-22T05:49:36.245Z,10.10
2022-12-22T05:50:36.539Z,10.04
2022-12-22T05:51:38.737Z,9.88
2022-12-22T05:52:37.144Z,10.10
2022-12-22T05:53:39.308Z,10.04
2022-12-22T05:54:37.580Z,9.83
2022-12-22T05:55:37.912Z,10.04
2022-12-22T05:56:40.071Z,10.10
2022-12-22T05:57:38.458Z,9.83
2022-12-22T05:58:38.777Z,10.04
2022-12-22T05:59:38.993Z,9.88
2022-12-22T06:00:39.493Z,10.04
2022-12-22T06:01:42.696Z,9.99
2022-12-22T06:02:40.057Z,9.88
2022-12-22T06:03:42.270Z,9.83
2022-12-22T06:04:40.442Z,9.83
2022-12-22T06:05:40.747Z,10.04
2022-12-22T06:06:42.937Z,9.72
2022-12-22T06:07:43.133Z,9.99
2022-12-22T06:08:43.323Z,9.94
2022-12-22T06:09:41.944Z,10.04
2022-12-22T06:10:42.241Z,9.83
2022-12-22T06:11:44.547Z,9.83
2022-12-22T06:12:42.795Z,9.78
2022-12-22T06:13:43.092Z,9.83
2022-12-22T06:14:43.935Z,9.88
2022-12-22T06:15:43.784Z,9.99
2022-12-22T06:16:45.901Z,9.88
2022-12-22T06:17:45.325Z,9.88
2022-12-22T06:18:46.464Z,9.88
2022-12-22T06:19:44.833Z,10.10
2022-12-22T06:20:46.087Z,10.04
2022-12-22T06:21:46.310Z,9.88
2022-12-22T06:22:46.718Z,9.88
2022-12-22T06:23:49.423Z,10.04
2022-12-22T06:24:46.326Z,9.88
2022-12-22T06:25:46.646Z,9.94
2022-12-22T06:26:46.932Z,9.88
2022-12-22T06:27:49.137Z,9.94
2022-12-22T06:28:49.322Z,9.83
2022-12-22T06:29:50.987Z,9.88
2022-12-22T06:30:48.152Z,10.10
2022-12-22T06:31:50.359Z,9.88
2022-12-22T06:32:48.748Z,9.83
2022-12-22T06:33:49.048Z,10.04
2022-12-22T06:34:49.365Z,10.15
2022-12-22T06:35:53.943Z,9.94
2022-12-22T06:36:52.861Z,9.83
2022-12-22T06:37:50.249Z,9.88
2022-12-22T06:38:50.538Z,9.94
2022-12-22T06:39:50.826Z,10.04
2022-12-22T06:40:53.015Z,9.94
2022-12-22T06:41:53.212Z,9.83
2022-12-22T06:42:52.305Z,9.83
2022-12-22T06:43:53.887Z,9.88
2022-12-22T06:44:52.255Z,9.83
2022-12-22T06:45:52.554Z,9.83
2022-12-22T06:46:52.922Z,9.88
2022-12-22T06:47:53.105Z,9.88
2022-12-22T06:48:56.737Z,9.88
2022-12-22T06:49:55.486Z,9.78
2022-12-22T06:50:55.662Z,9.94
2022-12-22T06:51:55.865Z,9.88
2022-12-22T06:52:56.526Z,9.88
2022-12-22T06:53:56.724Z,9.88
2022-12-22T06:54:56.911Z,9.83
2022-12-22T06:55:57.113Z,9.88
2022-12-22T06:56:57.818Z,9.88
2022-12-22T06:57:56.178Z,9.88
2022-12-22T06:58:58.365Z,9.83
2022-12-22T06:59:57.749Z,9.88
2022-12-22T07:00:58.935Z,9.88
2022-12-22T07:01:59.226Z,9.83
2022-12-22T07:02:59.445Z,9.88
2022-12-22T07:03:59.481Z,9.83
2022-12-22T07:04:58.162Z,10.04
2022-12-22T07:06:00.346Z,9.83
2022-12-22T07:07:00.507Z,9.88
2022-12-22T07:08:05.755Z,9.88
2022-12-22T07:09:02.161Z,9.88
2022-12-22T07:10:01.366Z,9.83
2022-12-22T07:11:02.998Z,9.88
2022-12-22T07:12:01.721Z,9.88
2022-12-22T07:13:01.560Z,9.88
2022-12-22T07:14:02.758Z,9.83
2022-12-22T07:15:02.940Z,9.94
2022-12-22T07:16:03.252Z,9.88
2022-12-22T07:17:03.349Z,9.83
2022-12-22T07:18:04.024Z,9.88
2022-12-22T07:19:04.204Z,9.83
2022-12-22T07:20:04.377Z,9.88
2022-12-22T07:21:04.576Z,9.94
2022-12-22T07:22:05.253Z,9.83
2022-12-22T07:23:05.421Z,9.83
2022-12-22T07:24:03.921Z,9.83
2022-12-22T07:25:06.094Z,9.94
2022-12-22T07:26:06.277Z,9.88
2022-12-22T07:27:06.530Z,9.88
2022-12-22T07:28:06.659Z,9.88
2022-12-22T07:29:06.863Z,9.99
2022-12-22T07:30:07.504Z,9.88
2022-12-22T07:31:07.725Z,9.88
2022-12-22T07:32:06.200Z,9.88
2022-12-22T07:33:06.510Z,9.94
2022-12-22T07:34:06.815Z,9.88
2022-12-22T07:35:08.021Z,9.88
2022-12-22T07:36:07.382Z,9.88
2022-12-22T07:37:07.681Z,9.88
2022-12-22T07:38:09.914Z,9.88
2022-12-22T07:39:10.071Z,9.88
2022-12-22T07:40:10.276Z,9.88
2022-12-22T07:41:10.451Z,9.40
2022-12-22T07:42:11.145Z,9.88
2022-12-22T07:43:11.321Z,9.99
2022-12-22T07:44:12.977Z,9.88
2022-12-22T07:45:10.152Z,9.94
2022-12-22T07:46:10.506Z,9.88
2022-12-22T07:47:12.609Z,9.83
2022-12-22T07:48:10.993Z,9.83
2022-12-22T07:49:13.182Z,9.83
2022-12-22T07:50:11.598Z,9.94
2022-12-22T07:51:11.932Z,9.83
2022-12-22T07:52:16.579Z,9.83
2022-12-22T07:53:12.530Z,9.94
2022-12-22T07:54:14.712Z,9.88
2022-12-22T07:55:13.135Z,9.94
2022-12-22T07:56:15.337Z,9.83
2022-12-22T07:57:13.770Z,9.88
2022-12-22T07:58:14.076Z,9.94
2022-12-22T07:59:14.270Z,9.88
2022-12-22T08:00:16.453Z,9.83
2022-12-22T08:01:16.638Z,9.94
2022-12-22T08:02:15.269Z,9.83
2022-12-22T08:03:15.591Z,9.83
2022-12-22T08:04:15.862Z,9.94
2022-12-22T08:05:18.001Z,9.99
2022-12-22T08:06:18.192Z,9.88
2022-12-22T08:07:18.360Z,9.83
2022-12-22T08:08:16.911Z,9.88
2022-12-22T08:09:17.182Z,9.83
2022-12-22T08:10:19.322Z,9.83
2022-12-22T08:11:19.506Z,9.88
2022-12-22T08:12:18.031Z,9.88
2022-12-22T08:13:19.200Z,9.83
2022-12-22T08:14:19.583Z,9.83
2022-12-22T08:15:18.957Z,9.88
2022-12-22T08:16:21.176Z,9.83
2022-12-22T08:17:19.750Z,9.83
2022-12-22T08:18:21.710Z,9.83
2022-12-22T08:19:20.115Z,9.83
2022-12-22T08:20:22.310Z,9.83
2022-12-22T08:21:20.716Z,9.67
2022-12-22T08:22:22.986Z,9.94
2022-12-22T08:23:21.396Z,9.83
2022-12-22T08:24:21.747Z,9.88
2022-12-22T08:25:22.086Z,9.88
2022-12-22T08:26:22.438Z,9.88
2022-12-22T08:27:26.364Z,9.83
2022-12-22T08:28:23.297Z,9.88
2022-12-22T08:29:25.182Z,9.78
2022-12-22T08:30:25.384Z,9.88
2022-12-22T08:31:23.993Z,9.99
2022-12-22T08:32:26.086Z,9.88
2022-12-22T08:33:24.492Z,9.83
2022-12-22T08:34:24.837Z,9.72
2022-12-22T08:35:25.164Z,9.88
2022-12-22T08:36:25.505Z,9.88
2022-12-22T08:37:27.685Z,9.83
2022-12-22T08:38:26.117Z,9.88
2022-12-22T08:39:26.329Z,9.83
2022-12-22T08:40:28.583Z,9.88
2022-12-22T08:41:26.985Z,9.88
2022-12-22T08:42:27.323Z,9.88
2022-12-22T08:43:29.516Z,9.88
2022-12-22T08:44:27.932Z,9.88
2022-12-22T08:45:28.279Z,9.83
2022-12-22T08:46:30.516Z,9.83
2022-12-22T08:47:30.698Z,9.67
2022-12-22T08:48:30.842Z,9.88
2022-12-22T08:49:31.045Z,9.88
2022-12-22T08:50:31.688Z,9.88
2022-12-22T08:51:29.969Z,9.83
2022-12-22T08:52:33.168Z,9.67
2022-12-22T08:54:14.323Z,9.83
2022-12-22T08:54:31.896Z,9.94
2022-12-22T08:55:33.076Z,9.88
2022-12-22T08:56:33.270Z,9.72
2022-12-22T08:57:33.470Z,9.88
2022-12-22T08:58:33.637Z,9.83
2022-12-22T08:59:34.334Z,9.83
2022-12-22T09:00:34.574Z,9.88
2022-12-22T09:01:34.864Z,9.94
2022-12-22T09:02:33.407Z,9.94
2022-12-22T09:03:35.444Z,9.67
2022-12-22T09:04:33.860Z,9.67
2022-12-22T09:05:34.070Z,9.88
2022-12-22T09:06:40.481Z,9.88
2022-12-22T09:07:35.752Z,9.88
2022-12-22T09:08:36.915Z,9.88
2022-12-22T09:09:37.097Z,9.83
2022-12-22T09:10:35.620Z,9.88
2022-12-22T09:11:35.951Z,9.72
2022-12-22T09:12:37.310Z,9.88
2022-12-22T09:13:38.492Z,9.67
2022-12-22T09:14:38.718Z,9.83
2022-12-22T09:15:38.907Z,9.83
2022-12-22T09:16:39.173Z,9.67
2022-12-22T09:17:39.315Z,9.88
2022-12-22T09:18:39.778Z,9.83
2022-12-22T09:19:40.157Z,9.88
2022-12-22T09:20:40.326Z,9.99
2022-12-22T09:21:40.506Z,9.83
2022-12-22T09:22:40.655Z,9.83
2022-12-22T09:23:41.338Z,9.94
2022-12-22T09:24:41.641Z,9.67
2022-12-22T09:25:41.740Z,9.72
2022-12-22T09:26:41.897Z,9.88
2022-12-22T09:27:42.605Z,9.94
2022-12-22T09:28:49.683Z,9.88
2022-12-22T09:29:44.460Z,9.72
2022-12-22T09:30:41.498Z,9.78
2022-12-22T09:31:43.813Z,9.72
2022-12-22T09:32:43.884Z,9.83
2022-12-22T09:33:44.090Z,9.72
2022-12-22T09:34:44.285Z,9.83
2022-12-22T09:35:45.123Z,9.99
2022-12-22T09:36:43.407Z,9.67
2022-12-22T09:37:43.733Z,9.88
2022-12-22T09:38:44.099Z,9.88
2022-12-22T09:39:46.276Z,9.88
2022-12-22T09:40:44.583Z,9.88
2022-12-22T09:41:44.800Z,9.83
2022-12-22T09:42:45.132Z,9.88
2022-12-22T09:43:45.496Z,9.72
2022-12-22T09:44:45.821Z,9.88
2022-12-22T09:45:49.046Z,9.88
2022-12-22T09:46:46.471Z,9.88
2022-12-22T09:47:48.664Z,9.67
2022-12-22T09:48:47.125Z,9.88
2022-12-22T09:49:47.314Z,9.72
2022-12-22T09:50:49.545Z,9.88
2022-12-22T09:51:51.151Z,9.88
2022-12-22T09:52:48.085Z,9.88
2022-12-22T09:53:50.272Z,9.72
2022-12-22T09:54:48.695Z,9.67
2022-12-22T09:55:49.048Z,9.72
2022-12-22T09:56:51.230Z,9.67
2022-12-22T09:57:49.638Z,9.72
2022-12-22T09:58:51.824Z,9.61
2022-12-22T09:59:50.228Z,9.67
2022-12-22T10:00:50.609Z,9.72
2022-12-22T10:01:51.872Z,9.72
2022-12-22T10:02:54.028Z,9.72
2022-12-22T10:03:56.518Z,9.78
2022-12-22T10:04:52.786Z,9.67
2022-12-22T10:05:52.062Z,9.83
2022-12-22T10:06:52.409Z,9.67
2022-12-22T10:07:54.595Z,9.67
2022-12-22T10:08:53.021Z,9.67
2022-12-22T10:09:53.341Z,9.78
2022-12-22T10:10:53.730Z,9.72
2022-12-22T10:11:54.033Z,9.67
2022-12-22T10:12:56.217Z,9.72
2022-12-22T10:13:55.518Z,9.67
2022-12-22T10:14:54.950Z,9.83
2022-12-22T10:15:55.281Z,9.83
2022-12-22T10:16:55.633Z,9.67
2022-12-22T10:17:55.958Z,9.72
2022-12-22T10:18:58.128Z,9.67
2022-12-22T10:19:56.557Z,9.72
2022-12-22T10:20:56.805Z,9.67
2022-12-22T10:21:57.045Z,9.72
2022-12-22T10:22:59.280Z,9.72
2022-12-22T10:23:58.522Z,9.67
2022-12-22T10:24:57.783Z,9.67
2022-12-22T10:26:27.378Z,9.72
2022-12-22T10:26:59.376Z,9.61
2022-12-22T10:27:58.644Z,9.72
2022-12-22T10:29:00.834Z,9.67
2022-12-22T10:30:01.406Z,9.67
2022-12-22T10:31:01.207Z,9.88
2022-12-22T10:32:01.458Z,9.67
2022-12-22T10:33:02.082Z,9.72
2022-12-22T10:34:02.256Z,9.67
2022-12-22T10:35:03.214Z,9.83
2022-12-22T10:36:02.667Z,9.88
2022-12-22T10:37:02.842Z,9.67
2022-12-22T10:38:03.543Z,9.67
2022-12-22T10:39:04.733Z,9.67
2022-12-22T10:40:02.456Z,9.83
2022-12-22T10:41:02.876Z,9.56
2022-12-22T10:42:02.771Z,9.67
2022-12-22T10:43:03.103Z,9.72
2022-12-22T10:44:03.437Z,9.67
2022-12-22T10:45:05.626Z,9.61
2022-12-22T10:46:05.059Z,9.72
2022-12-22T10:47:04.295Z,9.67
2022-12-22T10:48:06.447Z,9.67
2022-12-22T10:49:06.605Z,9.72
2022-12-22T10:50:06.795Z,9.61
2022-12-22T10:51:05.470Z,9.61
2022-12-22T10:52:05.794Z,9.67
2022-12-22T10:53:07.990Z,9.88
2022-12-22T10:54:08.181Z,9.72
2022-12-22T10:55:08.360Z,9.67
2022-12-22T10:56:08.570Z,9.67
2022-12-22T10:57:10.703Z,9.83
2022-12-22T10:58:09.478Z,9.72
2022-12-22T10:59:09.630Z,9.72
2022-12-22T11:00:09.818Z,9.67
2022-12-22T11:01:10.044Z,9.67
2022-12-22T11:02:11.028Z,9.67
2022-12-22T11:03:09.289Z,9.67
2022-12-22T11:04:11.404Z,9.61
2022-12-22T11:05:11.564Z,9.72
2022-12-22T11:06:09.953Z,9.67
2022-12-22T11:07:10.182Z,9.72
2022-12-22T11:08:12.400Z,9.67
2022-12-22T11:09:32.399Z,9.67
2022-12-22T11:10:13.761Z,9.88
2022-12-22T11:11:11.317Z,9.67
2022-12-22T11:12:11.547Z,9.72
2022-12-22T11:13:11.770Z,9.67
2022-12-22T11:14:15.402Z,9.83
2022-12-22T11:15:18.537Z,9.72
2022-12-22T11:16:13.618Z,9.67
2022-12-22T11:17:12.953Z,9.72
2022-12-22T11:18:13.190Z,9.67
2022-12-22T11:19:14.493Z,9.67
2022-12-22T11:20:15.729Z,9.72
2022-12-22T11:21:22.051Z,9.72
2022-12-22T11:22:15.393Z,9.67
2022-12-22T11:23:16.515Z,9.67
2022-12-22T11:24:16.684Z,9.72
2022-12-22T11:25:17.079Z,9.72
2022-12-22T11:26:17.021Z,9.67
2022-12-22T11:27:17.705Z,9.67
2022-12-22T11:28:16.134Z,9.67
2022-12-22T11:29:18.273Z,9.67
2022-12-22T11:30:16.712Z,9.72
2022-12-22T11:31:18.963Z,9.67
2022-12-22T11:32:17.285Z,9.61
2022-12-22T11:33:19.475Z,9.72
2022-12-22T11:34:21.261Z,9.67
2022-12-22T11:35:18.198Z,9.72
2022-12-22T11:36:20.450Z,9.72
2022-12-22T11:37:18.867Z,9.67
2022-12-22T11:38:19.209Z,9.61
2022-12-22T11:39:19.533Z,9.72
2022-12-22T11:40:21.733Z,9.67
2022-12-22T11:41:21.917Z,9.67
2022-12-22T11:42:20.465Z,9.61
2022-12-22T11:43:20.683Z,9.72
2022-12-22T11:44:22.862Z,9.72
2022-12-22T11:45:21.288Z,9.67
2022-12-22T11:46:21.575Z,9.72
2022-12-22T11:47:21.800Z,9.67
2022-12-22T11:48:23.106Z,9.72
2022-12-22T11:49:24.331Z,9.67
2022-12-22T11:51:01.543Z,9.67
2022-12-22T11:51:28.338Z,9.67
2022-12-22T11:52:26.172Z,9.67
2022-12-22T11:53:23.471Z,9.67
2022-12-22T11:54:25.668Z,9.72
2022-12-22T11:55:24.060Z,9.78
2022-12-22T11:56:24.402Z,9.78
2022-12-22T11:57:26.576Z,9.67
2022-12-22T11:58:27.039Z,9.78
2022-12-22T11:59:26.142Z,9.67
2022-12-22T12:00:49.032Z,9.67
2022-12-22T12:01:26.912Z,9.72
2022-12-22T12:02:26.360Z,9.67
2022-12-22T12:03:28.513Z,9.67
2022-12-22T12:04:28.609Z,9.72
2022-12-22T12:05:27.044Z,9.72
2022-12-22T12:06:27.254Z,9.67
2022-12-22T12:07:27.521Z,9.72
2022-12-22T12:08:27.713Z,9.67
2022-12-22T12:09:29.901Z,9.72
2022-12-22T12:10:28.218Z,9.67
2022-12-22T12:11:28.435Z,9.67
2022-12-22T12:12:28.649Z,9.72
2022-12-22T12:13:36.538Z,9.67
2022-12-22T12:14:32.194Z,9.67
2022-12-22T12:15:31.408Z,9.67
2022-12-22T12:16:29.971Z,9.67
2022-12-22T12:17:30.264Z,9.67
2022-12-22T12:18:30.597Z,9.61
2022-12-22T12:19:32.790Z,9.67
2022-12-22T12:20:34.456Z,9.72
2022-12-22T12:21:31.474Z,9.72
2022-12-22T12:22:31.819Z,9.61
2022-12-22T12:23:32.155Z,9.61
2022-12-22T12:24:34.353Z,9.67
2022-12-22T12:25:34.580Z,9.72
2022-12-22T12:26:34.850Z,9.67
2022-12-22T12:27:34.877Z,9.72
2022-12-22T12:28:35.055Z,9.61
2022-12-22T12:29:35.742Z,9.67
2022-12-22T12:30:38.786Z,9.67
2022-12-22T12:31:34.496Z,9.67
2022-12-22T12:32:34.670Z,9.61
2022-12-22T12:33:35.004Z,9.67
2022-12-22T12:34:37.183Z,9.61
2022-12-22T12:35:37.362Z,9.78
2022-12-22T12:36:37.563Z,9.67
2022-12-22T12:37:37.754Z,9.67
2022-12-22T12:39:37.885Z,9.67
2022-12-22T12:40:39.084Z,9.67
2022-12-22T12:41:39.264Z,9.72
2022-12-22T12:42:40.902Z,9.67
2022-12-22T12:43:39.629Z,9.72
2022-12-22T12:44:40.348Z,9.72
2022-12-22T12:45:40.539Z,9.67
2022-12-22T12:46:39.127Z,9.67
2022-12-22T12:47:42.725Z,9.67
2022-12-22T12:48:42.943Z,9.67
2022-12-22T12:49:41.674Z,9.67
2022-12-22T12:50:41.894Z,9.67
2022-12-22T12:51:42.051Z,9.67
2022-12-22T12:52:42.257Z,9.67
2022-12-22T12:53:41.186Z,9.61
2022-12-22T12:54:41.370Z,9.67
2022-12-22T12:55:41.723Z,9.67
2022-12-22T12:56:43.895Z,9.72
2022-12-22T12:57:44.076Z,9.72
2022-12-22T12:58:44.269Z,9.67
2022-12-22T12:59:44.577Z,9.72
2022-12-22T13:00:48.782Z,9.67
2022-12-22T13:01:46.538Z,9.72
2022-12-22T13:02:43.924Z,9.72
2022-12-22T13:04:03.150Z,9.67
2022-12-22T13:04:46.335Z,9.67
2022-12-22T13:05:46.662Z,9.61
2022-12-22T13:06:51.250Z,9.67
2022-12-22T13:07:47.043Z,9.67
2022-12-22T13:08:47.236Z,9.72
2022-12-22T13:09:51.418Z,9.67
2022-12-22T13:10:46.201Z,9.72
2022-12-22T13:12:49.548Z,9.67
2022-12-22T13:13:48.765Z,9.67
2022-12-22T13:14:49.393Z,9.72